Time;durP1;ratioP1;P1;durP2;ratioP2;P2;SDS_P1;SDS_P2;PMS_P1;PMS_P2;Temp;Humidity;BMP_temperature;BMP_pressure;BME280_temperature;BME280_humidity;BME280_pressure;Samples;Min_cycle;Max_cycle;Signal;HPM_P1;HPM_P2
2022/02/20 00:00:46;;;;;;;3.77;1.27;;;3.80;99.90;;;;;;5034049;28;20538;-80
2022/02/20 00:03:11;;;;;;;5.03;1.27;;;3.80;99.90;;;;;;5040878;28;20545;-82
2022/02/20 00:05:37;;;;;;;4.67;1.10;;;3.90;99.90;;;;;;5032570;28;20232;-83
2022/02/20 00:08:03;;;;;;;8.37;1.33;;;3.80;99.90;;;;;;5034386;28;20589;-82
2022/02/20 00:10:29;;;;;;;6.43;1.60;;;3.80;99.90;;;;;;5034888;28;20180;-82
2022/02/20 00:12:55;;;;;;;5.67;1.20;;;3.90;99.90;;;;;;5035452;28;20405;-82
2022/02/20 00:15:21;;;;;;;0.90;0.50;;;3.90;99.90;;;;;;5036248;28;20194;-81
2022/02/20 00:17:50;;;;;;;4.00;1.07;;;3.80;99.90;;;;;;5039930;28;20194;-81
2022/02/20 00:20:15;;;;;;;5.83;2.00;;;3.80;99.90;;;;;;5033708;28;20475;-83
2022/02/20 00:22:41;;;;;;;0.97;0.50;;;3.80;99.90;;;;;;5034620;28;20908;-81
2022/02/20 00:25:07;;;;;;;1.20;0.70;;;3.80;99.90;;;;;;5033604;28;20664;-80
2022/02/20 00:27:33;;;;;;;3.20;1.00;;;3.80;99.90;;;;;;5034509;28;20194;-81
2022/02/20 00:29:58;;;;;;;4.43;1.37;;;3.80;99.90;;;;;;5032891;28;20433;-80
2022/02/20 00:32:25;;;;;;;2.20;1.17;;;3.80;99.90;;;;;;5034014;28;20187;-81
2022/02/20 00:34:50;;;;;;;4.10;1.30;;;3.80;99.90;;;;;;5032681;28;20182;-81
2022/02/20 00:37:16;;;;;;;1.47;0.63;;;3.80;99.90;;;;;;5037416;28;20779;-81
2022/02/20 00:39:41;;;;;;;1.43;1.10;;;3.80;99.90;;;;;;5054193;28;20292;-79
2022/02/20 00:42:07;;;;;;;2.40;1.43;;;3.80;99.90;;;;;;5054294;28;20174;-78
2022/02/20 00:44:32;;;;;;;1.43;0.77;;;3.80;99.90;;;;;;5052891;28;20169;-79
2022/02/20 00:46:58;;;;;;;3.70;0.90;;;3.80;99.90;;;;;;5054276;28;20178;-81
2022/02/20 00:49:23;;;;;;;2.13;0.83;;;3.70;99.90;;;;;;5054069;28;20213;-79
2022/02/20 00:51:49;;;;;;;1.43;0.53;;;3.70;99.90;;;;;;5053759;28;20263;-79
2022/02/20 00:54:14;;;;;;;6.70;0.93;;;3.70;99.90;;;;;;5054173;28;20173;-78
2022/02/20 00:56:40;;;;;;;1.03;0.63;;;3.70;99.90;;;;;;5053924;28;20642;-81
2022/02/20 00:59:06;;;;;;;4.53;0.90;;;3.70;99.90;;;;;;5049334;28;20783;-79
2022/02/20 01:01:33;;;;;;;4.87;1.33;;;3.70;99.90;;;;;;5033592;28;20186;-79
2022/02/20 01:03:59;;;;;;;1.03;0.93;;;3.80;99.90;;;;;;5033959;28;20469;-79
2022/02/20 01:06:25;;;;;;;2.37;0.70;;;3.70;99.90;;;;;;5030750;28;20407;-82
2022/02/20 01:08:52;;;;;;;1.93;1.20;;;3.70;99.90;;;;;;5053585;28;20493;-82
2022/02/20 01:11:17;;;;;;;2.93;0.93;;;3.70;99.90;;;;;;5052503;28;20451;-83
2022/02/20 01:13:44;;;;;;;0.80;0.57;;;3.70;99.90;;;;;;5052512;28;20462;-82
2022/02/20 01:16:10;;;;;;;1.90;1.03;;;3.70;99.90;;;;;;5035229;28;20262;-81
2022/02/20 01:18:35;;;;;;;4.10;0.83;;;3.70;99.90;;;;;;5033673;28;20532;-81
2022/02/20 01:21:01;;;;;;;1.37;0.60;;;3.60;99.90;;;;;;5033380;28;20421;-80
2022/02/20 01:23:26;;;;;;;1.00;0.50;;;3.60;99.90;;;;;;5039307;28;20610;-82
2022/02/20 01:25:52;;;;;;;1.73;1.17;;;3.60;99.90;;;;;;5033462;28;20665;-82
2022/02/20 01:28:18;;;;;;;4.03;1.87;;;3.60;99.90;;;;;;5032515;28;20259;-83
2022/02/20 01:30:44;;;;;;;2.37;1.20;;;3.60;99.90;;;;;;5031668;28;20661;-82
2022/02/20 01:33:09;;;;;;;2.13;0.77;;;3.70;99.90;;;;;;5033329;28;20421;-81
2022/02/20 01:35:35;;;;;;;2.70;0.80;;;3.60;99.90;;;;;;5031120;28;20178;-82
2022/02/20 01:38:00;;;;;;;2.93;0.87;;;3.50;99.90;;;;;;5032388;28;20174;-81
2022/02/20 01:40:30;;;;;;;1.63;0.30;;;3.60;99.90;;;;;;5033601;28;20308;-82
2022/02/20 01:42:56;;;;;;;1.77;0.93;;;3.60;99.90;;;;;;5033536;28;20166;-79
2022/02/20 01:45:22;;;;;;;3.90;0.87;;;3.50;99.90;;;;;;5033060;28;20413;-78
2022/02/20 01:47:48;;;;;;;1.33;0.67;;;3.50;99.90;;;;;;5046488;28;20473;-79
2022/02/20 01:50:16;;;;;;;1.90;0.93;;;3.60;99.90;;;;;;5052193;28;20423;-80
2022/02/20 01:52:41;;;;;;;1.90;0.97;;;3.50;99.90;;;;;;5052872;28;20178;-81
2022/02/20 01:55:07;;;;;;;1.50;1.03;;;3.50;99.90;;;;;;5053291;28;20874;-81
2022/02/20 01:57:37;;;;;;;2.93;1.07;;;3.50;99.90;;;;;;5048462;28;20174;-82
2022/02/20 02:00:13;;;;;;;2.30;0.60;;;3.50;99.90;;;;;;5030508;28;20417;-82
2022/02/20 02:02:39;;;;;;;0.77;0.77;;;3.50;99.90;;;;;;5032594;28;20467;-81
2022/02/20 02:05:05;;;;;;;0.70;0.70;;;3.60;99.90;;;;;;5033946;28;20802;-81
2022/02/20 02:07:31;;;;;;;1.50;0.47;;;3.60;99.90;;;;;;5041883;28;20173;-83
2022/02/20 02:09:56;;;;;;;1.13;1.13;;;3.60;99.90;;;;;;5036553;28;20428;-81
2022/02/20 02:12:22;;;;;;;0.63;0.60;;;3.60;99.90;;;;;;5049824;28;20554;-80
2022/02/20 02:14:59;;;;;;;1.13;0.63;;;3.60;99.90;;;;;;5053067;28;20242;-81
2022/02/20 02:17:25;;;;;;;1.17;0.60;;;3.70;99.90;;;;;;5052988;28;20411;-80
2022/02/20 02:19:51;;;;;;;2.07;1.00;;;3.60;99.90;;;;;;5046387;28;20425;-80
2022/02/20 02:22:21;;;;;;;2.50;0.83;;;3.60;99.90;;;;;;5031339;28;20204;-80
2022/02/20 02:24:47;;;;;;;1.10;0.63;;;3.60;99.90;;;;;;5028134;28;20193;-79
2022/02/20 02:27:14;;;;;;;1.43;0.97;;;3.60;99.90;;;;;;5013421;28;20462;-79
2022/02/20 02:29:41;;;;;;;1.50;0.87;;;3.60;99.90;;;;;;5024785;28;20873;-81
2022/02/20 02:32:07;;;;;;;4.63;1.67;;;3.60;99.90;;;;;;5030166;28;20459;-80
2022/02/20 02:34:33;;;;;;;3.93;0.93;;;3.60;99.90;;;;;;5033057;28;20417;-79
2022/02/20 02:36:58;;;;;;;1.23;0.70;;;3.40;99.90;;;;;;5029873;28;20425;-81
2022/02/20 02:39:24;;;;;;;2.50;0.97;;;3.30;99.90;;;;;;5031423;28;20234;-82
2022/02/20 02:41:49;;;;;;;3.30;1.07;;;3.30;99.90;;;;;;5032476;28;20235;-80
2022/02/20 02:44:15;;;;;;;2.30;0.80;;;3.30;99.90;;;;;;5028346;28;20183;-79
2022/02/20 02:46:41;;;;;;;3.13;0.43;;;3.40;99.90;;;;;;5013023;28;20195;-81
2022/02/20 02:49:06;;;;;;;0.60;0.57;;;3.40;99.90;;;;;;5012888;28;20250;-82
2022/02/20 02:51:32;;;;;;;1.90;1.47;;;3.40;99.90;;;;;;5019398;28;20178;-79
2022/02/20 02:53:58;;;;;;;1.97;1.17;;;3.40;99.90;;;;;;5031270;28;20190;-79
2022/02/20 02:56:24;;;;;;;1.00;0.83;;;3.40;99.90;;;;;;5032460;28;20174;-83
2022/02/20 02:58:50;;;;;;;1.20;0.80;;;3.50;99.90;;;;;;5032594;28;20803;-78
2022/02/20 03:01:16;;;;;;;3.00;1.03;;;3.50;99.90;;;;;;5030885;28;20451;-82
2022/02/20 03:03:42;;;;;;;1.90;1.60;;;3.50;99.90;;;;;;5031333;28;20482;-79
2022/02/20 03:06:14;;;;;;;1.20;0.93;;;3.50;99.90;;;;;;5032655;28;20409;-79
2022/02/20 03:08:39;;;;;;;3.53;0.77;;;3.50;99.90;;;;;;5030511;28;20503;-80
2022/02/20 03:11:06;;;;;;;1.47;1.37;;;3.50;99.90;;;;;;5032575;28;20417;-79
2022/02/20 03:13:33;;;;;;;1.33;1.00;;;3.50;99.90;;;;;;5032443;28;20261;-79
2022/02/20 03:15:59;;;;;;;2.20;1.33;;;3.50;99.90;;;;;;5032334;28;20921;-79
2022/02/20 03:18:26;;;;;;;2.20;1.33;;;3.50;99.90;;;;;;5032495;28;20850;-80
2022/02/20 03:20:51;;;;;;;4.20;2.07;;;3.60;99.90;;;;;;5033601;28;20461;-83
2022/02/20 03:23:17;;;;;;;3.70;1.83;;;3.60;99.90;;;;;;5036209;28;20416;-79
2022/02/20 03:25:42;;;;;;;2.47;1.73;;;3.60;99.90;;;;;;5036523;28;20174;-79
2022/02/20 03:28:08;;;;;;;3.13;2.80;;;3.60;99.90;;;;;;5036263;28;20207;-79
2022/02/20 03:30:34;;;;;;;4.20;3.80;;;3.60;99.90;;;;;;5034574;28;20196;-81
2022/02/20 03:32:59;;;;;;;3.00;2.20;;;3.60;99.90;;;;;;5022027;28;20179;-83
2022/02/20 03:35:25;;;;;;;4.87;3.77;;;3.60;99.90;;;;;;5016373;28;20282;-80
2022/02/20 03:37:51;;;;;;;3.57;2.90;;;3.70;99.90;;;;;;5016084;28;20171;-79
2022/02/20 03:40:17;;;;;;;4.13;3.37;;;3.70;99.90;;;;;;5022810;28;20515;-81
2022/02/20 03:42:42;;;;;;;4.40;2.77;;;3.70;99.90;;;;;;5036064;28;20232;-81
2022/02/20 03:45:08;;;;;;;6.70;3.50;;;3.70;99.90;;;;;;5035816;28;20669;-82
2022/02/20 03:47:34;;;;;;;4.37;3.80;;;3.70;99.90;;;;;;5035846;28;20189;-78
2022/02/20 03:50:00;;;;;;;5.80;3.90;;;3.70;99.90;;;;;;5034815;28;20817;-78
2022/02/20 03:52:25;;;;;;;5.93;4.10;;;3.70;99.90;;;;;;5035566;28;20175;-84
2022/02/20 03:54:51;;;;;;;4.60;3.03;;;3.70;99.90;;;;;;5028748;28;20194;-78
2022/02/20 03:57:16;;;;;;;5.60;3.30;;;3.70;99.90;;;;;;5014723;28;20400;-85
2022/02/20 03:59:42;;;;;;;9.33;4.23;;;3.70;99.90;;;;;;5015898;28;20217;-78
2022/02/20 04:02:07;;;;;;;5.80;5.10;;;3.70;99.90;;;;;;5015954;28;20186;-80
2022/02/20 04:04:34;;;;;;;6.57;4.40;;;3.70;99.90;;;;;;5015991;28;20175;-80
2022/02/20 04:07:02;;;;;;;6.70;4.60;;;3.70;99.90;;;;;;5015632;28;20253;-79
2022/02/20 04:09:27;;;;;;;6.60;5.37;;;3.70;99.90;;;;;;5014520;28;20473;-82
2022/02/20 04:11:53;;;;;;;8.13;5.60;;;3.70;99.90;;;;;;5015775;28;20481;-78
2022/02/20 04:14:18;;;;;;;10.23;5.20;;;3.80;99.90;;;;;;5034375;28;20704;-82
2022/02/20 04:16:47;;;;;;;8.97;5.27;;;3.80;99.90;;;;;;5035401;28;20167;-81
2022/02/20 04:19:12;;;;;;;7.47;4.90;;;3.80;99.90;;;;;;5035515;28;20171;-81
2022/02/20 04:21:38;;;;;;;6.13;5.23;;;3.70;99.90;;;;;;5035099;28;20416;-83
2022/02/20 04:24:04;;;;;;;6.83;5.50;;;3.80;99.90;;;;;;5035384;28;20251;-80
2022/02/20 04:26:29;;;;;;;8.90;5.90;;;3.80;99.90;;;;;;5035114;28;20216;-80
2022/02/20 04:28:55;;;;;;;6.17;5.10;;;3.80;99.90;;;;;;5035083;28;20259;-79
2022/02/20 04:31:20;;;;;;;6.87;4.57;;;3.70;99.90;;;;;;5037418;28;20587;-79
2022/02/20 04:33:46;;;;;;;8.40;5.93;;;3.80;99.90;;;;;;5033203;28;20624;-81
2022/02/20 04:36:13;;;;;;;7.90;5.53;;;3.80;99.90;;;;;;5034830;28;20217;-83
2022/02/20 04:38:39;;;;;;;11.50;7.57;;;3.80;99.90;;;;;;5035171;28;20398;-80
2022/02/20 04:41:04;;;;;;;8.10;5.93;;;3.80;99.90;;;;;;5051315;28;20490;-80
2022/02/20 04:43:30;;;;;;;9.43;6.60;;;3.80;99.90;;;;;;5033712;28;20412;-79
2022/02/20 04:45:56;;;;;;;6.97;5.30;;;3.80;99.90;;;;;;5034802;28;20548;-83
2022/02/20 04:48:22;;;;;;;6.53;4.37;;;3.90;99.90;;;;;;5034610;28;20245;-83
2022/02/20 04:50:47;;;;;;;9.50;6.50;;;3.80;99.90;;;;;;5034765;28;20272;-79
2022/02/20 04:53:16;;;;;;;8.83;7.03;;;3.80;99.90;;;;;;5034435;28;20186;-81
2022/02/20 04:55:42;;;;;;;10.10;6.07;;;3.80;99.90;;;;;;5033424;28;20174;-81
2022/02/20 04:58:08;;;;;;;8.90;6.73;;;3.80;99.90;;;;;;5034662;28;20429;-81
2022/02/20 05:00:35;;;;;;;8.93;6.00;;;3.90;99.90;;;;;;5034705;28;20540;-83
2022/02/20 05:03:01;;;;;;;10.20;7.40;;;3.90;99.90;;;;;;5047265;28;20507;-83
2022/02/20 05:05:29;;;;;;;6.60;5.60;;;3.90;99.90;;;;;;5053055;28;20463;-80
2022/02/20 05:08:01;;;;;;;8.50;6.20;;;3.90;99.90;;;;;;5052547;28;20865;-84
2022/02/20 05:10:26;;;;;;;7.07;6.20;;;3.90;99.90;;;;;;5043379;28;20432;-83
2022/02/20 05:12:52;;;;;;;7.93;5.27;;;3.90;99.90;;;;;;5034387;28;20487;-82
2022/02/20 05:15:17;;;;;;;10.50;5.40;;;3.90;99.90;;;;;;5032726;28;20257;-82
2022/02/20 05:17:43;;;;;;;12.47;7.50;;;3.90;99.90;;;;;;5034331;28;20173;-80
2022/02/20 05:20:12;;;;;;;8.90;6.47;;;3.90;99.90;;;;;;5033076;28;20206;-81
2022/02/20 05:22:40;;;;;;;8.73;5.77;;;3.90;99.90;;;;;;5033773;28;20166;-82
2022/02/20 05:25:06;;;;;;;12.57;6.60;;;3.90;99.90;;;;;;5045379;28;20511;-80
2022/02/20 05:27:33;;;;;;;9.53;7.10;;;3.90;99.90;;;;;;5054031;28;20830;-78
2022/02/20 05:29:58;;;;;;;7.80;6.00;;;3.90;99.90;;;;;;5054056;28;20170;-79
2022/02/20 05:32:25;;;;;;;12.10;6.57;;;3.90;99.90;;;;;;5053997;28;20618;-80
2022/02/20 05:34:52;;;;;;;8.87;7.20;;;3.90;99.90;;;;;;5052673;28;20547;-80
2022/02/20 05:37:18;;;;;;;7.67;5.73;;;3.80;99.90;;;;;;5053465;28;20409;-82
2022/02/20 05:39:44;;;;;;;9.80;6.87;;;3.80;99.90;;;;;;5053574;28;20824;-79
2022/02/20 05:42:10;;;;;;;10.77;7.50;;;3.90;99.90;;;;;;5053782;28;20421;-82
2022/02/20 05:44:35;;;;;;;11.40;6.67;;;3.80;99.90;;;;;;5052755;28;20624;-82
2022/02/20 05:47:01;;;;;;;10.70;7.30;;;3.90;99.90;;;;;;5053551;28;20174;-79
2022/02/20 05:49:27;;;;;;;9.87;6.80;;;3.90;99.90;;;;;;5053401;28;20657;-83
2022/02/20 05:51:52;;;;;;;10.87;6.93;;;3.90;99.90;;;;;;5053195;28;20513;-82
2022/02/20 05:54:18;;;;;;;6.73;5.77;;;3.90;99.90;;;;;;5053425;28;20173;-81
2022/02/20 05:56:43;;;;;;;9.40;5.80;;;3.90;99.90;;;;;;5053549;28;20170;-83
2022/02/20 05:59:12;;;;;;;10.90;6.57;;;3.90;99.90;;;;;;5053413;28;20173;-82
2022/02/20 06:01:38;;;;;;;6.40;5.73;;;3.90;99.90;;;;;;5053256;28;20253;-83
2022/02/20 06:04:04;;;;;;;8.80;5.70;;;3.90;99.90;;;;;;5053443;28;20511;-83
2022/02/20 06:06:35;;;;;;;7.90;6.27;;;3.90;99.90;;;;;;5052732;28;20161;-82
2022/02/20 06:09:02;;;;;;;9.63;6.50;;;3.90;99.90;;;;;;5051829;28;20473;-84
2022/02/20 06:11:30;;;;;;;7.33;4.93;;;3.90;99.90;;;;;;5053191;28;20404;-79
2022/02/20 06:13:56;;;;;;;11.43;6.07;;;3.90;99.90;;;;;;5053143;28;20420;-81
2022/02/20 06:16:22;;;;;;;9.03;6.30;;;3.90;99.90;;;;;;5052746;28;21082;-83
2022/02/20 06:18:47;;;;;;;9.97;6.63;;;3.90;99.90;;;;;;5052995;28;20489;-81
2022/02/20 06:21:14;;;;;;;9.00;5.53;;;3.90;99.90;;;;;;5052544;28;20162;-82
2022/02/20 06:23:40;;;;;;;9.63;5.97;;;3.90;99.90;;;;;;5053203;28;20416;-83
2022/02/20 06:26:09;;;;;;;8.53;6.23;;;3.90;99.90;;;;;;5053303;28;20414;-83
2022/02/20 06:28:34;;;;;;;8.00;5.57;;;3.90;99.90;;;;;;5053070;28;20810;-82
2022/02/20 06:31:00;;;;;;;11.80;5.50;;;3.90;99.90;;;;;;5050732;28;20412;-79
2022/02/20 06:33:28;;;;;;;8.63;5.30;;;3.90;99.90;;;;;;5053002;28;20176;-80
2022/02/20 06:35:53;;;;;;;8.03;4.93;;;3.90;99.90;;;;;;5052934;28;20166;-80
2022/02/20 06:38:19;;;;;;;8.70;5.53;;;3.90;99.90;;;;;;5053080;28;20408;-81
2022/02/20 06:40:44;;;;;;;7.80;5.77;;;3.90;99.90;;;;;;5052955;28;20225;-83
2022/02/20 06:43:10;;;;;;;7.23;5.10;;;3.90;99.90;;;;;;5052964;28;20174;-79
2022/02/20 06:45:35;;;;;;;8.90;6.10;;;3.90;99.90;;;;;;5051652;28;20673;-80
2022/02/20 06:48:01;;;;;;;11.50;7.43;;;3.90;99.90;;;;;;5052873;28;20198;-81
2022/02/20 06:50:26;;;;;;;10.83;7.23;;;3.90;99.90;;;;;;5051678;28;20181;-78
2022/02/20 06:52:52;;;;;;;11.20;6.57;;;3.90;99.90;;;;;;5051305;28;20184;-84
2022/02/20 06:55:18;;;;;;;10.30;6.37;;;4.00;99.90;;;;;;5052583;28;20261;-80
2022/02/20 06:57:43;;;;;;;8.63;6.50;;;4.00;99.90;;;;;;5052796;28;20178;-82
2022/02/20 07:00:15;;;;;;;10.20;6.20;;;3.90;99.90;;;;;;5052724;28;20174;-79
2022/02/20 07:02:41;;;;;;;9.20;5.20;;;4.00;99.90;;;;;;5052730;28;20597;-78
2022/02/20 07:05:07;;;;;;;9.60;6.10;;;3.90;99.90;;;;;;5052876;28;20481;-80
2022/02/20 07:07:33;;;;;;;8.80;5.90;;;3.90;99.90;;;;;;5052514;28;20404;-80
2022/02/20 07:09:59;;;;;;;10.70;5.20;;;4.00;99.90;;;;;;5052905;28;20460;-81
2022/02/20 07:12:31;;;;;;;8.07;5.00;;;4.00;99.90;;;;;;5052980;28;20173;-83
2022/02/20 07:14:56;;;;;;;9.63;4.90;;;4.00;99.90;;;;;;5052260;28;20169;-79
2022/02/20 07:17:22;;;;;;;9.70;5.80;;;4.00;99.90;;;;;;5052180;28;20417;-79
2022/02/20 07:19:47;;;;;;;8.00;5.60;;;3.90;99.90;;;;;;5058315;28;20177;-79
2022/02/20 07:22:13;;;;;;;8.70;6.30;;;3.90;99.90;;;;;;5053414;28;20174;-79
2022/02/20 07:24:38;;;;;;;7.17;5.17;;;4.00;99.90;;;;;;5052725;28;20170;-81
2022/02/20 07:27:04;;;;;;;9.30;5.67;;;4.00;99.90;;;;;;5052755;28;20185;-79
2022/02/20 07:29:30;;;;;;;6.10;4.63;;;4.00;99.90;;;;;;5052337;28;20211;-82
2022/02/20 07:31:55;;;;;;;6.80;4.47;;;4.00;99.90;;;;;;5052618;28;20185;-79
2022/02/20 07:34:21;;;;;;;7.30;4.67;;;4.00;99.90;;;;;;5052545;28;20174;-80
2022/02/20 07:36:47;;;;;;;7.93;4.43;;;3.90;99.90;;;;;;5051960;28;20216;-81
2022/02/20 07:39:12;;;;;;;7.40;4.50;;;4.00;99.90;;;;;;5052141;28;20320;-79
2022/02/20 07:41:38;;;;;;;4.10;3.63;;;4.00;99.90;;;;;;5052418;28;20174;-82
2022/02/20 07:44:05;;;;;;;6.00;3.60;;;4.00;99.90;;;;;;5051090;28;20174;-78
2022/02/20 07:46:31;;;;;;;5.40;3.37;;;4.00;99.90;;;;;;5052395;28;20494;-81
2022/02/20 07:49:00;;;;;;;5.70;3.23;;;4.00;99.90;;;;;;5052112;28;20475;-78
2022/02/20 07:51:26;;;;;;;3.70;3.37;;;4.00;99.90;;;;;;5052074;28;20408;-82
2022/02/20 07:53:52;;;;;;;6.50;4.00;;;4.00;99.90;;;;;;5051996;28;20420;-79
2022/02/20 07:56:18;;;;;;;5.03;3.80;;;4.10;99.90;;;;;;5052305;28;20897;-78
2022/02/20 07:58:46;;;;;;;5.43;3.30;;;4.10;99.90;;;;;;5052269;28;20419;-79
2022/02/20 08:01:12;;;;;;;4.40;3.50;;;4.00;99.90;;;;;;5052259;28;20243;-79
2022/02/20 08:03:38;;;;;;;6.00;4.00;;;4.10;99.90;;;;;;5052229;28;20949;-83
2022/02/20 08:06:04;;;;;;;7.03;3.60;;;4.10;99.90;;;;;;5051966;28;20400;-83
2022/02/20 08:08:33;;;;;;;5.00;3.10;;;4.00;99.90;;;;;;5054476;28;20463;-81
2022/02/20 08:11:00;;;;;;;6.10;4.13;;;4.00;99.90;;;;;;5055751;28;20423;-81
2022/02/20 08:13:27;;;;;;;5.27;3.37;;;4.00;99.90;;;;;;5055719;28;20522;-83
2022/02/20 08:15:53;;;;;;;5.03;3.00;;;3.90;99.90;;;;;;5055763;28;20412;-78
2022/02/20 08:18:22;;;;;;;7.03;3.70;;;4.00;99.90;;;;;;5055740;28;20416;-81
2022/02/20 08:20:48;;;;;;;5.60;2.60;;;4.00;99.90;;;;;;5055083;28;20495;-80
2022/02/20 08:23:15;;;;;;;4.10;3.07;;;4.00;99.90;;;;;;5055510;28;20516;-80
2022/02/20 08:25:41;;;;;;;8.83;3.67;;;4.00;99.90;;;;;;5055395;28;20214;-81
2022/02/20 08:28:07;;;;;;;3.27;2.03;;;4.00;99.90;;;;;;5055347;28;20959;-82
2022/02/20 08:30:33;;;;;;;4.37;3.13;;;4.00;99.90;;;;;;5055284;28;20231;-83
2022/02/20 08:32:58;;;;;;;6.20;3.43;;;4.00;99.90;;;;;;5054155;28;20412;-83
2022/02/20 08:35:24;;;;;;;4.27;2.73;;;3.90;99.90;;;;;;5053808;28;20231;-80
2022/02/20 08:37:50;;;;;;;4.67;2.97;;;3.90;99.90;;;;;;5055030;28;20517;-80
2022/02/20 08:40:18;;;;;;;5.10;3.40;;;4.00;99.90;;;;;;5055073;28;20599;-80
2022/02/20 08:42:44;;;;;;;4.83;3.17;;;3.90;99.90;;;;;;5055147;28;20166;-79
2022/02/20 08:45:11;;;;;;;5.70;3.97;;;3.90;99.90;;;;;;5055097;28;20448;-80
2022/02/20 08:47:37;;;;;;;5.67;3.27;;;3.90;99.90;;;;;;5054991;28;20412;-82
2022/02/20 08:50:04;;;;;;;7.33;4.80;;;3.90;99.90;;;;;;5053734;28;20427;-80
2022/02/20 08:52:29;;;;;;;6.77;4.33;;;3.90;99.90;;;;;;5053336;28;20523;-82
2022/02/20 08:54:55;;;;;;;5.20;3.40;;;4.00;99.90;;;;;;5053767;28;20431;-82
2022/02/20 08:57:20;;;;;;;6.50;3.90;;;4.00;99.90;;;;;;5054774;28;20173;-80
2022/02/20 08:59:46;;;;;;;5.10;3.67;;;4.00;99.90;;;;;;5054737;28;20196;-80
2022/02/20 09:02:12;;;;;;;5.93;3.27;;;3.90;99.90;;;;;;5054772;28;20181;-80
2022/02/20 09:04:41;;;;;;;5.57;4.07;;;3.80;99.90;;;;;;5053363;28;20223;-80
2022/02/20 09:07:07;;;;;;;5.60;3.40;;;4.00;99.90;;;;;;5054123;28;20428;-80
2022/02/20 09:09:33;;;;;;;5.53;3.60;;;3.90;99.90;;;;;;5054455;28;20461;-80
2022/02/20 09:11:59;;;;;;;6.33;4.03;;;3.80;99.90;;;;;;5054707;28;20193;-83
2022/02/20 09:14:25;;;;;;;6.57;4.37;;;3.80;99.90;;;;;;5054486;28;20767;-80
2022/02/20 09:16:50;;;;;;;5.70;3.67;;;3.80;99.90;;;;;;5053178;28;20470;-83
2022/02/20 09:19:16;;;;;;;6.37;4.40;;;3.80;99.90;;;;;;5049931;28;20213;-84
2022/02/20 09:21:41;;;;;;;5.83;4.03;;;3.70;99.90;;;;;;5044810;28;20191;-83
2022/02/20 09:24:07;;;;;;;5.00;3.57;;;3.70;99.90;;;;;;5034291;28;20543;-83
2022/02/20 09:26:33;;;;;;;5.70;4.13;;;3.70;99.90;;;;;;5041797;28;20186;-83
2022/02/20 09:28:59;;;;;;;6.83;3.80;;;3.70;99.90;;;;;;5052785;28;20536;-82
2022/02/20 09:31:24;;;;;;;4.53;3.60;;;3.80;99.90;;;;;;5054475;28;20237;-83
2022/02/20 09:33:50;;;;;;;5.70;3.10;;;3.80;99.90;;;;;;5054457;28;20404;-79
2022/02/20 09:36:16;;;;;;;5.30;3.30;;;3.80;99.90;;;;;;5053954;28;20259;-80
2022/02/20 09:38:42;;;;;;;7.90;4.07;;;3.80;99.90;;;;;;5054129;28;20229;-84
2022/02/20 09:41:08;;;;;;;5.40;3.20;;;3.90;99.90;;;;;;5041401;28;20319;-81
2022/02/20 09:43:37;;;;;;;6.30;4.30;;;3.80;99.90;;;;;;5024694;28;20270;-79
2022/02/20 09:46:03;;;;;;;4.77;3.43;;;3.80;99.90;;;;;;5026728;28;20410;-79
2022/02/20 09:48:29;;;;;;;5.37;4.03;;;3.80;99.90;;;;;;5033792;28;20964;-82
2022/02/20 09:50:55;;;;;;;4.13;2.97;;;3.80;99.90;;;;;;5033466;28;20756;-84
2022/02/20 09:53:23;;;;;;;6.20;4.80;;;3.80;99.90;;;;;;5033842;28;20412;-84
2022/02/20 09:55:49;;;;;;;4.80;3.13;;;3.90;99.90;;;;;;5032183;28;20202;-81
2022/02/20 09:58:17;;;;;;;4.50;3.13;;;3.80;99.90;;;;;;5033886;28;20494;-84
2022/02/20 10:00:57;;;;;;;6.77;3.67;;;3.70;99.90;;;;;;5037766;28;20775;-79
2022/02/20 10:03:30;;;;;;;4.57;3.53;;;3.80;99.90;;;;;;5053664;28;20428;-80
2022/02/20 10:05:56;;;;;;;4.47;3.10;;;3.80;99.90;;;;;;5053089;28;20416;-82
2022/02/20 10:08:21;;;;;;;4.07;3.67;;;3.80;99.90;;;;;;5053432;28;20520;-83
2022/02/20 10:10:47;;;;;;;4.00;3.13;;;3.80;99.90;;;;;;5052051;28;20165;-79
2022/02/20 10:13:24;;;;;;;4.87;3.40;;;3.80;99.90;;;;;;5053280;28;20169;-82
2022/02/20 10:15:49;;;;;;;5.27;3.87;;;3.70;99.90;;;;;;5053502;28;20171;-82
2022/02/20 10:18:19;;;;;;;3.60;2.60;;;3.70;99.90;;;;;;5041080;28;20425;-80
2022/02/20 10:20:47;;;;;;;3.67;2.83;;;;;;;;;;5042248;28;20625;-84
2022/02/20 10:23:14;;;;;;;4.97;3.30;;;3.60;99.90;;;;;;5053384;28;20487;-81
2022/02/20 10:25:40;;;;;;;5.50;2.87;;;3.60;99.90;;;;;;5044947;28;20414;-82
2022/02/20 10:28:07;;;;;;;5.03;2.93;;;3.50;99.90;;;;;;5031879;28;20464;-80
2022/02/20 10:30:36;;;;;;;3.00;1.90;;;3.60;99.90;;;;;;5031269;28;20890;-82
2022/02/20 10:33:06;;;;;;;2.90;2.33;;;3.60;99.90;;;;;;5052835;28;20482;-80
2022/02/20 10:35:43;;;;;;;3.00;1.77;;;3.60;99.90;;;;;;5052873;28;20461;-79
2022/02/20 10:38:14;;;;;;;6.37;2.83;;;3.40;99.90;;;;;;5051870;28;20460;-80
2022/02/20 10:40:54;;;;;;;3.10;2.10;;;3.50;99.90;;;;;;5036222;28;20507;-83
2022/02/20 10:43:31;;;;;;;4.00;2.93;;;3.60;99.90;;;;;;5031844;28;20421;-83
2022/02/20 10:46:15;;;;;;;3.73;2.40;;;3.60;99.90;;;;;;5032953;28;20764;-80
2022/02/20 10:48:46;;;;;;;2.60;2.07;;;3.60;99.90;;;;;;5032890;28;20474;-82
2022/02/20 10:51:17;;;;;;;2.60;1.90;;;3.60;99.90;;;;;;5032649;28;20442;-83
2022/02/20 10:53:45;;;;;;;5.27;2.70;;;3.60;99.90;;;;;;5021176;28;20433;-83
2022/02/20 10:56:11;;;;;;;3.00;2.27;;;3.70;99.90;;;;;;5049451;28;20455;-80
2022/02/20 10:58:45;;;;;;;2.73;2.07;;;3.60;99.90;;;;;;5032938;28;20488;-81
2022/02/20 11:01:25;;;;;;;3.00;2.10;;;3.60;99.90;;;;;;5032937;28;20263;-84
2022/02/20 11:04:00;;;;;;;2.23;1.57;;;3.60;99.90;;;;;;5052453;28;20472;-84
2022/02/20 11:06:28;;;;;;;2.10;1.37;;;3.50;99.90;;;;;;5051146;28;20926;-80
2022/02/20 11:09:02;;;;;;;1.10;0.70;;;3.50;99.90;;;;;;5052833;28;20467;-84
2022/02/20 11:11:37;;;;;;;1.90;1.80;;;3.60;99.90;;;;;;5052565;28;20777;-85
2022/02/20 11:14:11;;;;;;;3.17;1.57;;;3.70;99.90;;;;;;5041235;28;20428;-80
2022/02/20 11:16:47;;;;;;;1.03;0.40;;;3.60;99.90;;;;;;5032700;28;20508;-80
2022/02/20 11:19:16;;;;;;;4.57;1.97;;;3.60;99.90;;;;;;5023542;28;20432;-84
2022/02/20 11:21:43;;;;;;;2.23;1.30;;;3.60;99.90;;;;;;5039948;28;20432;-82
2022/02/20 11:24:13;;;;;;;1.77;1.10;;;3.70;99.90;;;;;;5051527;28;20451;-82
2022/02/20 11:26:42;;;;;;;3.50;2.00;;;3.70;99.90;;;;;;5052221;28;20916;-84
2022/02/20 11:29:08;;;;;;;2.60;1.70;;;3.80;99.90;;;;;;5051997;28;20471;-81
2022/02/20 11:31:34;;;;;;;3.27;1.33;;;3.80;99.90;;;;;;5052211;28;20415;-84
2022/02/20 11:34:01;;;;;;;3.80;1.57;;;3.80;99.90;;;;;;5052210;28;20186;-83
2022/02/20 11:36:29;;;;;;;5.40;2.00;;;3.80;99.90;;;;;;5051996;28;20411;-80
2022/02/20 11:39:27;;;;;;;2.73;1.90;;;4.00;99.90;;;;;;5052484;28;20443;-82
2022/02/20 11:42:13;;;;;;;1.40;1.10;;;4.00;99.90;;;;;;5037699;28;20523;-82
2022/02/20 11:45:02;;;;;;;2.20;1.83;;;4.10;99.90;;;;;;5054913;28;20763;-82
2022/02/20 11:47:34;;;;;;;4.27;2.13;;;4.10;99.90;;;;;;5035816;28;20432;-80
2022/02/20 11:50:22;;;;;;;2.37;1.60;;;4.20;99.90;;;;;;5033466;28;20476;-82
2022/02/20 11:52:59;;;;;;;4.20;2.07;;;4.40;99.90;;;;;;5028807;28;20444;-82
2022/02/20 11:55:32;;;;;;;3.93;2.37;;;4.40;99.90;;;;;;5035626;28;20925;-80
2022/02/20 11:58:21;;;;;;;2.70;1.53;;;4.50;99.90;;;;;;5035378;28;20831;-81
2022/02/20 12:00:56;;;;;;;2.07;1.30;;;4.70;99.90;;;;;;5034237;28;20432;-79
2022/02/20 12:03:58;;;;;;;3.10;1.97;;;4.90;99.90;;;;;;5030780;28;20412;-84
2022/02/20 12:06:28;;;;;;;4.73;1.97;;;5.00;99.90;;;;;;5024940;28;20426;-82
2022/02/20 12:08:59;;;;;;;2.07;1.23;;;5.20;99.90;;;;;;5029539;28;20475;-82
2022/02/20 12:11:39;;;;;;;2.70;1.57;;;5.40;99.90;;;;;;5024238;28;20421;-82
2022/02/20 12:14:16;;;;;;;2.37;1.70;;;5.50;99.90;;;;;;5031540;28;21808;-80
2022/02/20 12:16:50;;;;;;;3.93;1.77;;;5.60;99.90;;;;;;5027999;28;20420;-83
2022/02/20 12:19:31;;;;;;;2.70;1.90;;;5.80;99.90;;;;;;5048981;28;20422;-80
2022/02/20 12:21:59;;;;;;;2.20;2.00;;;5.90;99.90;;;;;;5044258;28;20423;-81
2022/02/20 12:24:48;;;;;;;5.70;2.10;;;6.10;99.90;;;;;;5041280;28;20421;-80
2022/02/20 12:27:16;;;;;;;2.40;1.40;;;6.20;99.90;;;;;;5055131;28;20421;-83
2022/02/20 12:29:49;;;;;;;2.87;2.50;;;6.30;99.90;;;;;;5054098;28;20479;-82
2022/02/20 12:32:15;;;;;;;3.50;1.50;;;6.40;99.90;;;;;;5034304;28;20414;-83
2022/02/20 12:35:11;;;;;;;2.47;1.70;;;6.50;99.90;;;;;;5035383;28;20522;-83
2022/02/20 12:37:42;;;;;;;3.90;2.03;;;6.60;99.90;;;;;;5055276;28;20415;-83
2022/02/20 12:40:09;;;;;;;2.93;1.90;;;6.60;99.90;;;;;;5055087;28;20480;-83
2022/02/20 12:42:44;;;;;;;3.80;2.97;;;6.70;99.90;;;;;;5055231;28;20461;-82
2022/02/20 12:45:14;;;;;;;4.10;2.17;;;6.80;99.90;;;;;;5037569;28;20428;-82
2022/02/20 12:47:41;;;;;;;4.43;2.80;;;6.80;99.90;;;;;;5035276;28;20409;-82
2022/02/20 12:50:12;;;;;;;3.07;1.97;;;6.90;99.90;;;;;;5034927;28;20466;-82
2022/02/20 12:52:39;;;;;;;3.67;2.40;;;6.90;99.90;;;;;;5029160;28;20414;-82
2022/02/20 12:55:06;;;;;;;6.80;2.40;;;7.00;99.90;;;;;;5046242;28;20894;-83
2022/02/20 12:57:36;;;;;;;3.73;1.90;;;7.00;99.90;;;;;;5042120;28;20949;-82
2022/02/20 13:00:09;;;;;;;3.90;2.07;;;7.10;99.90;;;;;;5030890;28;20411;-82